Oski — WYD3004 — position and weather

sailwx.info

Track history (hours):
 
Tides and Currents Weather Stations Pressure Air Temp Water Temp Dewpoint Dewpoint Depression Visibility Wind Speed Wind Dir Waves Ship Positions

Oski

Owner: BLUE & GOLD FLEET, SAN FRANCISCO, CA. More information available from US FCC via Universal Licensing System and Coast Guard Vessel Documentation Center.

Last reported at 2014-Dec-21 01:23 UTC. Time now 2014-Dec-22 04:10 UTC.
Position N 37°49' W 122°25'.

Length 24 m; draft 2 m.

Type: Passenger vessel. MMSI: 366985320.

Date/timePositionNaut miles runAvg speedWind from/ knotsBaromVisibWave heightAir tempDewpointWater temp
2014-Dec-21 01:23N 37°49' W 122°25'0 0.2
2014-Dec-21 00:33N 37°49' W 122°25'3 3.0
2014-Dec-20 23:33N 37°49' W 122°28'3 3.1
2014-Dec-20 22:33N 37°49' W 122°25'3 2.7
2014-Dec-20 21:33N 37°49' W 122°28'3 3.0
2014-Dec-20 20:34N 37°49' W 122°24'0 0.4
2014-Dec-20 19:34N 37°49' W 122°25'3 2.7
2014-Dec-20 18:33N 37°49' W 122°28'3 0.1
2014-Dec-19 01:27N 37°49' W 122°25'0 0.1
2014-Dec-19 00:34N 37°49' W 122°25'3 2.9
2014-Dec-18 23:33N 37°49' W 122°28'3 2.9
2014-Dec-18 22:33N 37°49' W 122°25'3 3.1
2014-Dec-18 21:33N 37°49' W 122°29'3 2.8
2014-Dec-18 20:33N 37°50' W 122°25'1 1.0
2014-Dec-18 19:33N 37°49' W 122°25'3 3.1
2014-Dec-18 18:34N 37°49' W 122°28'  
2014-Dec-15 01:33N 37°50' W 122°26'2 1.7
2014-Dec-15 00:33N 37°49' W 122°24'0 0.3
2014-Dec-14 23:33N 37°49' W 122°25'2 2.3
2014-Dec-14 22:33N 37°49' W 122°28'2 2.3
2014-Dec-14 21:33N 37°49' W 122°25'3 2.7
2014-Dec-14 20:33N 37°49' W 122°28'1 1.5
2014-Dec-14 19:34N 37°49' W 122°26'2 1.5
2014-Dec-14 18:33N 37°49' W 122°25'2 0.1
2014-Dec-14 01:33N 37°50' W 122°26'1 1.5
2014-Dec-14 00:33N 37°49' W 122°24'0 0.3
2014-Dec-13 23:33N 37°49' W 122°25'2 2.3
2014-Dec-13 22:33N 37°49' W 122°28'2 2.3
2014-Dec-13 21:33N 37°49' W 122°25'3 2.7
2014-Dec-13 20:33N 37°49' W 122°28'1 1.4
2014-Dec-13 19:33N 37°49' W 122°26'2 1.6
2014-Dec-13 18:33N 37°49' W 122°25'0 0.0
2014-Dec-13 17:33N 37°49' W 122°25'0 0.0
2014-Dec-13 01:26N 37°49' W 122°25'0 0.2
2014-Dec-13 00:33N 37°49' W 122°25'3 3.2
2014-Dec-12 23:33N 37°51' W 122°28'3 3.3
2014-Dec-12 22:33N 37°49' W 122°25'3 2.6
2014-Dec-12 21:33N 37°49' W 122°28'  
Track history (hours):
 
Tides and Currents Weather Stations Pressure Air Temp Water Temp Dewpoint Dewpoint Depression Visibility Wind Speed Wind Dir Waves Ship Positions

Oski

Owner: BLUE & GOLD FLEET, SAN FRANCISCO, CA. More information available from US FCC via Universal Licensing System and Coast Guard Vessel Documentation Center.

Last reported at 2014-Dec-21 01:23 UTC. Time now 2014-Dec-22 04:10 UTC.
Position N 37°49' W 122°25'.

Length 24 m; draft 2 m.

Type: Passenger vessel. MMSI: 366985320.

Date/timePositionNaut miles runAvg speedWind from/ knotsBaromVisibWave heightAir tempDewpointWater temp
2014-Dec-21 01:23N 37°49' W 122°25'0 0.2
2014-Dec-21 00:33N 37°49' W 122°25'3 3.0
2014-Dec-20 23:33N 37°49' W 122°28'3 3.1
2014-Dec-20 22:33N 37°49' W 122°25'3 2.7
2014-Dec-20 21:33N 37°49' W 122°28'3 3.0
2014-Dec-20 20:34N 37°49' W 122°24'0 0.4
2014-Dec-20 19:34N 37°49' W 122°25'3 2.7
2014-Dec-20 18:33N 37°49' W 122°28'3 0.1
2014-Dec-19 01:27N 37°49' W 122°25'0 0.1
2014-Dec-19 00:34N 37°49' W 122°25'3 2.9
2014-Dec-18 23:33N 37°49' W 122°28'3 2.9
2014-Dec-18 22:33N 37°49' W 122°25'3 3.1
2014-Dec-18 21:33N 37°49' W 122°29'3 2.8
2014-Dec-18 20:33N 37°50' W 122°25'1 1.0
2014-Dec-18 19:33N 37°49' W 122°25'3 3.1
2014-Dec-18 18:34N 37°49' W 122°28'  
2014-Dec-15 01:33N 37°50' W 122°26'2 1.7
2014-Dec-15 00:33N 37°49' W 122°24'0 0.3
2014-Dec-14 23:33N 37°49' W 122°25'2 2.3
2014-Dec-14 22:33N 37°49' W 122°28'2 2.3
2014-Dec-14 21:33N 37°49' W 122°25'3 2.7
2014-Dec-14 20:33N 37°49' W 122°28'1 1.5
2014-Dec-14 19:34N 37°49' W 122°26'2 1.5
2014-Dec-14 18:33N 37°49' W 122°25'2 0.1
2014-Dec-14 01:33N 37°50' W 122°26'1 1.5
2014-Dec-14 00:33N 37°49' W 122°24'0 0.3
2014-Dec-13 23:33N 37°49' W 122°25'2 2.3
2014-Dec-13 22:33N 37°49' W 122°28'2 2.3
2014-Dec-13 21:33N 37°49' W 122°25'3 2.7
2014-Dec-13 20:33N 37°49' W 122°28'1 1.4
2014-Dec-13 19:33N 37°49' W 122°26'2 1.6
2014-Dec-13 18:33N 37°49' W 122°25'0 0.0
2014-Dec-13 17:33N 37°49' W 122°25'0 0.0
2014-Dec-13 01:26N 37°49' W 122°25'0 0.2
2014-Dec-13 00:33N 37°49' W 122°25'3 3.2
2014-Dec-12 23:33N 37°51' W 122°28'3 3.3
2014-Dec-12 22:33N 37°49' W 122°25'3 2.6
2014-Dec-12 21:33N 37°49' W 122°28'  

Dump ship's entire track history